Time;durP1;ratioP1;P1;durP2;ratioP2;P2;SDS_P1;SDS_P2;PMS_P1;PMS_P2;Temp;Humidity;BMP_temperature;BMP_pressure;BME280_temperature;BME280_humidity;BME280_pressure;Samples;Min_cycle;Max_cycle;Signal;HPM_P1;HPM_P2
2021/08/11 00:00:21;;;;;;;10.57;5.78;;;;;;;;;;6191498;28;20197;-72
2021/08/11 00:03:22;;;;;;;10.38;6.05;;;;;;;;;;6193096;28;20053;-72
2021/08/11 00:06:24;;;;;;;7.93;5.55;;;;;;;;;;6197584;28;20046;-71
2021/08/11 00:09:27;;;;;;;7.13;5.25;;;;;;;;;;6200480;28;20103;-71
2021/08/11 00:12:28;;;;;;;7.82;6.10;;;;;;;;;;6195663;28;20064;-71
2021/08/11 00:15:30;;;;;;;11.07;5.70;;;;;;;;;;6196306;28;20113;-72
2021/08/11 00:18:32;;;;;;;7.75;5.60;;;;;;;;;;6214617;28;20570;-71
2021/08/11 00:21:33;;;;;;;8.45;5.40;;;;;;;;;;6212502;28;20568;-71
2021/08/11 00:24:36;;;;;;;8.82;5.47;;;;;;;;;;6220531;28;20042;-72
2021/08/11 00:27:38;;;;;;;7.78;5.57;;;;;;;;;;6215495;28;20125;-71
2021/08/11 00:30:39;;;;;;;5.90;5.22;;;;;;;;;;6195881;28;20070;-71
2021/08/11 00:33:41;;;;;;;9.35;5.68;;;;;;;;;;6203616;28;20042;-72
2021/08/11 00:36:42;;;;;;;9.68;5.93;;;;;;;;;;6200086;28;20107;-72
2021/08/11 00:39:45;;;;;;;11.02;6.22;;;;;;;;;;6203459;28;20042;-71
2021/08/11 00:42:47;;;;;;;11.35;5.65;;;;;;;;;;6198886;28;20054;-71
2021/08/11 00:45:49;;;;;;;10.38;5.30;;;;;;;;;;6188701;28;20818;-71
2021/08/11 00:48:50;;;;;;;8.25;5.68;;;;;;;;;;6190271;28;20047;-71
2021/08/11 00:51:52;;;;;;;7.93;5.57;;;;;;;;;;6187892;28;20045;-71
2021/08/11 00:54:56;;;;;;;7.35;5.13;;;;;;;;;;6207456;28;20054;-71
2021/08/11 00:57:58;;;;;;;6.00;5.00;;;;;;;;;;6198089;28;20466;-71
2021/08/11 01:01:00;;;;;;;9.20;5.85;;;;;;;;;;6186101;28;20173;-71
2021/08/11 01:04:02;;;;;;;11.55;5.80;;;;;;;;;;6204188;28;20610;-71
2021/08/11 01:07:04;;;;;;;11.02;5.53;;;;;;;;;;6198265;28;20050;-71
2021/08/11 01:10:09;;;;;;;13.70;5.73;;;;;;;;;;6204170;28;20141;-72
2021/08/11 01:13:13;;;;;;;8.85;5.45;;;;;;;;;;6198956;28;20068;-71
2021/08/11 01:16:15;;;;;;;7.97;5.65;;;;;;;;;;6190356;28;20057;-72
2021/08/11 01:19:18;;;;;;;8.93;6.05;;;;;;;;;;6199473;28;20081;-71
2021/08/11 01:22:25;;;;;;;7.93;5.55;;;;;;;;;;6194617;28;20419;-71
2021/08/11 01:25:33;;;;;;;8.77;5.55;;;;;;;;;;6195674;28;20212;-71
2021/08/11 01:28:50;;;;;;;9.50;6.80;;;;;;;;;;6205436;28;20133;-71
2021/08/11 01:31:58;;;;;;;9.30;5.85;;;;;;;;;;6183891;28;20049;-72
2021/08/11 01:35:02;;;;;;;10.02;5.78;;;;;;;;;;6194153;28;20038;-71
2021/08/11 01:38:06;;;;;;;9.48;6.13;;;;;;;;;;6185384;28;20085;-71
2021/08/11 01:41:08;;;;;;;8.02;5.97;;;;;;;;;;6195963;28;20383;-71
2021/08/11 01:44:10;;;;;;;10.27;6.53;;;;;;;;;;6203048;28;20060;-71
2021/08/11 01:47:14;;;;;;;9.13;6.32;;;;;;;;;;6186989;28;20046;-71
2021/08/11 01:50:20;;;;;;;8.63;6.78;;;;;;;;;;6188966;28;20042;-72
2021/08/11 01:53:23;;;;;;;13.48;6.82;;;;;;;;;;6198098;28;20068;-71
2021/08/11 01:56:25;;;;;;;10.13;6.45;;;;;;;;;;6186686;28;20048;-72
2021/08/11 01:59:27;;;;;;;9.07;6.47;;;;;;;;;;6207393;28;20049;-71
2021/08/11 02:02:28;;;;;;;11.70;6.07;;;;;;;;;;6174704;28;20046;-71
2021/08/11 02:05:32;;;;;;;7.10;5.78;;;;;;;;;;6186239;28;20076;-71
2021/08/11 02:08:34;;;;;;;8.77;6.45;;;;;;;;;;6197023;28;20105;-70
2021/08/11 02:11:37;;;;;;;9.90;6.60;;;;;;;;;;6187823;28;20046;-70
2021/08/11 02:14:40;;;;;;;13.75;6.45;;;;;;;;;;6202634;28;20417;-70
2021/08/11 02:17:42;;;;;;;9.63;6.38;;;;;;;;;;6173213;28;20061;-71
2021/08/11 02:20:46;;;;;;;8.13;5.90;;;;;;;;;;6189301;28;20165;-71
2021/08/11 02:23:47;;;;;;;11.00;6.18;;;;;;;;;;6202248;28;20042;-71
2021/08/11 02:26:51;;;;;;;8.60;5.82;;;;;;;;;;6190591;28;20489;-71
2021/08/11 02:29:56;;;;;;;8.90;6.35;;;;;;;;;;6204808;28;20054;-71
2021/08/11 02:33:00;;;;;;;7.40;5.80;;;;;;;;;;6187921;28;20176;-71
2021/08/11 02:36:09;;;;;;;7.20;5.80;;;;;;;;;;6190658;28;20057;-71
2021/08/11 02:39:13;;;;;;;8.65;5.95;;;;;;;;;;6206663;28;20038;-71
2021/08/11 02:42:26;;;;;;;9.02;6.10;;;;;;;;;;6199633;28;20546;-70
2021/08/11 02:45:28;;;;;;;9.50;5.43;;;;;;;;;;6197068;28;20077;-71
2021/08/11 02:48:30;;;;;;;8.07;5.22;;;;;;;;;;6200474;28;20069;-71
2021/08/11 02:51:35;;;;;;;7.93;6.18;;;;;;;;;;6193373;28;20038;-71
2021/08/11 02:54:39;;;;;;;7.50;5.07;;;;;;;;;;6210960;28;20060;-71
2021/08/11 02:57:41;;;;;;;8.55;5.15;;;;;;;;;;6195654;28;20097;-71
2021/08/11 03:00:42;;;;;;;8.38;5.45;;;;;;;;;;6197103;28;20104;-71
2021/08/11 03:03:44;;;;;;;8.57;5.22;;;;;;;;;;6197455;28;20133;-70
2021/08/11 03:06:47;;;;;;;8.57;5.80;;;;;;;;;;6187439;28;20046;-70
2021/08/11 03:09:50;;;;;;;6.05;4.95;;;;;;;;;;6198672;28;20045;-71
2021/08/11 03:12:52;;;;;;;6.82;5.28;;;;;;;;;;6191654;28;20050;-70
2021/08/11 03:15:53;;;;;;;8.80;5.38;;;;;;;;;;6184034;28;20572;-71
2021/08/11 03:18:55;;;;;;;8.60;5.03;;;;;;;;;;6195136;28;20156;-70
2021/08/11 03:21:58;;;;;;;7.30;5.00;;;;;;;;;;6190830;28;20046;-71
2021/08/11 03:25:00;;;;;;;8.82;5.28;;;;;;;;;;6198760;28;20129;-71
2021/08/11 03:28:01;;;;;;;7.43;5.53;;;;;;;;;;6197093;28;20398;-71
2021/08/11 03:31:03;;;;;;;9.63;5.18;;;;;;;;;;6191598;28;20180;-71
2021/08/11 03:34:04;;;;;;;8.18;4.80;;;;;;;;;;6200096;28;20050;-70
2021/08/11 03:37:07;;;;;;;6.78;5.00;;;;;;;;;;6195135;28;20188;-70
2021/08/11 03:40:10;;;;;;;12.68;4.97;;;;;;;;;;6197451;28;20081;-71
2021/08/11 03:43:12;;;;;;;7.90;5.15;;;;;;;;;;6198016;28;20136;-70
2021/08/11 03:46:13;;;;;;;7.38;5.03;;;;;;;;;;6190114;28;20485;-71
2021/08/11 03:49:15;;;;;;;9.90;5.72;;;;;;;;;;6196890;28;20089;-70
2021/08/11 03:52:18;;;;;;;8.13;5.05;;;;;;;;;;6195128;28;20565;-70
2021/08/11 03:55:20;;;;;;;9.65;5.38;;;;;;;;;;6194307;28;20057;-71
2021/08/11 03:58:21;;;;;;;11.25;5.03;;;;;;;;;;6196393;28;20041;-70
2021/08/11 04:01:23;;;;;;;9.23;5.57;;;;;;;;;;6187904;28;20072;-70
2021/08/11 04:04:24;;;;;;;7.38;5.18;;;;;;;;;;6194911;28;20042;-70
2021/08/11 04:07:27;;;;;;;7.22;4.80;;;;;;;;;;6188830;28;20049;-71
2021/08/11 04:10:29;;;;;;;8.52;5.45;;;;;;;;;;6193716;28;20277;-71
2021/08/11 04:13:30;;;;;;;8.40;5.30;;;;;;;;;;6199228;28;20145;-70
2021/08/11 04:16:32;;;;;;;7.85;4.93;;;;;;;;;;6186586;28;20065;-70
2021/08/11 04:19:34;;;;;;;7.32;5.38;;;;;;;;;;6198864;28;20438;-71
2021/08/11 04:22:37;;;;;;;7.63;5.32;;;;;;;;;;6187791;28;20134;-71
2021/08/11 04:25:40;;;;;;;8.50;5.38;;;;;;;;;;6191691;28;20129;-70
2021/08/11 04:28:41;;;;;;;;;;;;;;;;;;6199608;28;20494;-70
2021/08/11 04:31:43;;;;;;;7.80;5.30;;;;;;;;;;6182825;28;19922;-71
2021/08/11 04:34:45;;;;;;;6.85;5.20;;;;;;;;;;6203043;28;20494;-70
2021/08/11 04:37:48;;;;;;;8.32;5.20;;;;;;;;;;6192582;28;20053;-70
2021/08/11 04:40:50;;;;;;;13.25;5.78;;;;;;;;;;6196382;28;20101;-71
2021/08/11 04:43:52;;;;;;;8.38;5.30;;;;;;;;;;6205083;28;20521;-71
2021/08/11 04:46:55;;;;;;;7.25;5.00;;;;;;;;;;6187277;28;20133;-71
2021/08/11 04:49:57;;;;;;;6.60;5.10;;;;;;;;;;6211803;28;20077;-71
2021/08/11 04:52:59;;;;;;;7.00;5.03;;;;;;;;;;6203222;28;20901;-71
2021/08/11 04:56:01;;;;;;;5.97;5.22;;;;;;;;;;6199565;28;20072;-71
2021/08/11 04:59:03;;;;;;;7.38;5.03;;;;;;;;;;6213300;28;20128;-70
2021/08/11 05:02:04;;;;;;;8.40;5.43;;;;;;;;;;6193258;28;20050;-71
2021/08/11 05:05:07;;;;;;;8.63;5.57;;;;;;;;;;6200961;28;20185;-71
2021/08/11 05:08:10;;;;;;;7.40;5.20;;;;;;;;;;6191935;28;20081;-71
2021/08/11 05:11:12;;;;;;;9.95;5.90;;;;;;;;;;6192515;28;20503;-70
2021/08/11 05:14:13;;;;;;;6.88;5.32;;;;;;;;;;6206701;28;20085;-71
2021/08/11 05:17:20;;;;;;;8.30;5.35;;;;;;;;;;6183946;28;20062;-71
2021/08/11 05:20:22;;;;;;;6.63;4.93;;;;;;;;;;6191978;28;20085;-70
2021/08/11 05:23:26;;;;;;;7.28;5.22;;;;;;;;;;6197574;28;20052;-71
2021/08/11 05:26:28;;;;;;;9.40;5.10;;;;;;;;;;6190588;28;20051;-70
2021/08/11 05:29:31;;;;;;;8.00;5.32;;;;;;;;;;6208799;28;20433;-70
2021/08/11 05:32:32;;;;;;;9.93;5.57;;;;;;;;;;6185457;28;20045;-70
2021/08/11 05:35:34;;;;;;;8.77;5.15;;;;;;;;;;6190192;28;20814;-71
2021/08/11 05:38:39;;;;;;;6.10;4.80;;;;;;;;;;6202267;28;20042;-70
2021/08/11 05:41:40;;;;;;;7.65;4.88;;;;;;;;;;6192526;28;20133;-70
2021/08/11 05:44:42;;;;;;;7.72;4.88;;;;;;;;;;6199612;28;20188;-70
2021/08/11 05:47:43;;;;;;;9.95;5.35;;;;;;;;;;6186907;28;20046;-71
2021/08/11 05:50:45;;;;;;;7.30;4.95;;;;;;;;;;6182190;28;20048;-70
2021/08/11 05:53:48;;;;;;;7.20;5.20;;;;;;;;;;6195270;28;20042;-70
2021/08/11 05:56:49;;;;;;;10.80;5.25;;;;;;;;;;6193993;28;20144;-70
2021/08/11 05:59:51;;;;;;;7.15;5.40;;;;;;;;;;6200095;28;20115;-70
2021/08/11 06:02:53;;;;;;;8.48;5.85;;;;;;;;;;6188177;28;20045;-71
2021/08/11 06:05:54;;;;;;;11.55;7.13;;;;;;;;;;6186969;28;20169;-71
2021/08/11 06:08:57;;;;;;;15.63;8.63;;;;;;;;;;6201548;28;20414;-70
2021/08/11 06:12:00;;;;;;;13.85;8.27;;;;;;;;;;6194506;28;20103;-71
2021/08/11 06:15:01;;;;;;;14.88;9.55;;;;;;;;;;6200119;28;20056;-71
2021/08/11 06:18:03;;;;;;;15.73;10.07;;;;;;;;;;6187431;28;20510;-71
2021/08/11 06:21:05;;;;;;;17.27;10.48;;;;;;;;;;6190820;28;20133;-71
2021/08/11 06:24:08;;;;;;;16.38;11.40;;;;;;;;;;6198948;28;20052;-70
2021/08/11 06:27:10;;;;;;;15.57;10.77;;;;;;;;;;6188854;28;20061;-71
2021/08/11 06:30:13;;;;;;;15.23;10.88;;;;;;;;;;6197904;28;20052;-72
2021/08/11 06:33:15;;;;;;;16.95;10.55;;;;;;;;;;6189801;28;20054;-71
2021/08/11 06:36:16;;;;;;;17.92;10.90;;;;;;;;;;6188558;28;20117;-71
2021/08/11 06:39:19;;;;;;;14.02;10.77;;;;;;;;;;6194420;28;20128;-70
2021/08/11 06:42:21;;;;;;;16.00;10.40;;;;;;;;;;6193979;28;20129;-71
2021/08/11 06:45:22;;;;;;;11.55;9.50;;;;;;;;;;6191644;28;20057;-71
2021/08/11 06:48:24;;;;;;;12.02;9.18;;;;;;;;;;6197163;28;20505;-71
2021/08/11 06:51:25;;;;;;;12.23;8.93;;;;;;;;;;6186489;28;20186;-71
2021/08/11 06:54:28;;;;;;;14.05;10.35;;;;;;;;;;6197794;28;20136;-70
2021/08/11 06:57:30;;;;;;;12.02;9.20;;;;;;;;;;6192097;28;20164;-70
2021/08/11 07:00:31;;;;;;;11.13;8.45;;;;;;;;;;6187387;28;20039;-71
2021/08/11 07:03:33;;;;;;;14.57;8.63;;;;;;;;;;6191582;28;20497;-71
2021/08/11 07:06:34;;;;;;;10.13;8.63;;;;;;;;;;6189093;28;20058;-70
2021/08/11 07:09:37;;;;;;;12.27;7.63;;;;;;;;;;6197871;28;20096;-71
2021/08/11 07:12:39;;;;;;;10.77;7.90;;;;;;;;;;6194299;28;20108;-72
2021/08/11 07:15:40;;;;;;;13.80;8.85;;;;;;;;;;6199578;28;20040;-71
2021/08/11 07:18:42;;;;;;;11.85;8.10;;;;;;;;;;6202730;28;20054;-70
2021/08/11 07:21:44;;;;;;;13.90;8.82;;;;;;;;;;6190099;28;20412;-71
2021/08/11 07:24:47;;;;;;;12.55;8.25;;;;;;;;;;6196504;28;20066;-71
2021/08/11 07:27:48;;;;;;;11.25;7.70;;;;;;;;;;6190345;28;20125;-71
2021/08/11 07:30:50;;;;;;;14.38;7.32;;;;;;;;;;6189010;28;20052;-71
2021/08/11 07:33:52;;;;;;;10.48;7.32;;;;;;;;;;6195564;28;20149;-71
2021/08/11 07:36:53;;;;;;;10.38;6.93;;;;;;;;;;6188997;28;20180;-70
2021/08/11 07:39:57;;;;;;;9.82;7.00;;;;;;;;;;6183094;28;20498;-71
2021/08/11 07:42:59;;;;;;;12.73;7.10;;;;;;;;;;6187926;28;20053;-70
2021/08/11 07:46:01;;;;;;;8.60;7.10;;;;;;;;;;6188973;28;20038;-71
2021/08/11 07:49:02;;;;;;;10.10;7.97;;;;;;;;;;6196502;28;20081;-71
2021/08/11 07:52:04;;;;;;;10.73;7.43;;;;;;;;;;6192329;28;20426;-71
2021/08/11 07:55:09;;;;;;;8.98;6.70;;;;;;;;;;6201361;28;20046;-71
2021/08/11 07:58:11;;;;;;;11.57;8.10;;;;;;;;;;6194173;28;20062;-71
2021/08/11 08:01:12;;;;;;;12.10;8.02;;;;;;;;;;6178270;28;20050;-71
2021/08/11 08:04:14;;;;;;;13.15;8.02;;;;;;;;;;6198985;28;20202;-71
2021/08/11 08:07:15;;;;;;;13.02;7.18;;;;;;;;;;6192065;28;20050;-70
2021/08/11 08:10:18;;;;;;;11.88;7.45;;;;;;;;;;6196053;28;20460;-72
2021/08/11 08:13:21;;;;;;;;;;;;;;;;;;6198987;28;20070;-71
2021/08/11 08:16:22;;;;;;;11.48;8.32;;;;;;;;;;6195073;28;20056;-71
2021/08/11 08:19:24;;;;;;;8.77;6.68;;;;;;;;;;6196432;28;20107;-71
2021/08/11 08:22:25;;;;;;;7.22;5.57;;;;;;;;;;6193975;28;20068;-71
2021/08/11 08:25:28;;;;;;;11.55;5.97;;;;;;;;;;6196575;28;20823;-71
2021/08/11 08:28:30;;;;;;;13.27;7.35;;;;;;;;;;6202369;28;20054;-71
2021/08/11 08:31:32;;;;;;;11.73;7.93;;;;;;;;;;6185367;28;20625;-71
2021/08/11 08:34:33;;;;;;;12.02;7.60;;;;;;;;;;6198612;28;20111;-71
2021/08/11 08:37:37;;;;;;;8.80;6.30;;;;;;;;;;6192495;28;20181;-71
2021/08/11 08:40:44;;;;;;;11.63;6.25;;;;;;;;;;6200372;28;20042;-71
2021/08/11 08:43:45;;;;;;;8.73;7.15;;;;;;;;;;6196285;28;20048;-71
2021/08/11 08:46:47;;;;;;;7.87;6.60;;;;;;;;;;6191628;28;20053;-71
2021/08/11 08:49:50;;;;;;;9.27;6.13;;;;;;;;;;6198462;28;20552;-71
2021/08/11 08:52:51;;;;;;;6.15;5.28;;;;;;;;;;6194732;28;20130;-71
2021/08/11 08:55:54;;;;;;;6.13;4.75;;;;;;;;;;6195077;28;20056;-71
2021/08/11 08:58:56;;;;;;;8.02;5.50;;;;;;;;;;6219741;28;20050;-71
2021/08/11 09:01:57;;;;;;;5.75;4.63;;;;;;;;;;6189386;28;20524;-71
2021/08/11 09:04:59;;;;;;;7.05;4.85;;;;;;;;;;6197943;28;20042;-71
2021/08/11 09:08:01;;;;;;;10.67;5.27;;;;;;;;;;6202296;28;20526;-71
2021/08/11 09:11:15;;;;;;;7.73;4.70;;;;;;;;;;6196011;28;20045;-71
2021/08/11 09:14:20;;;;;;;6.57;4.85;;;;;;;;;;6202261;28;20375;-71
2021/08/11 09:17:33;;;;;;;7.68;4.53;;;;;;;;;;6180329;28;20050;-71
2021/08/11 09:20:35;;;;;;;8.13;4.85;;;;;;;;;;6187978;28;20886;-71
2021/08/11 09:23:37;;;;;;;7.25;4.55;;;;;;;;;;6201509;28;20457;-71
2021/08/11 09:26:42;;;;;;;10.27;4.90;;;;;;;;;;6203788;28;20085;-71
2021/08/11 09:30:02;;;;;;;6.95;4.43;;;;;;;;;;6217817;28;20073;-72
2021/08/11 09:33:05;;;;;;;7.30;4.65;;;;;;;;;;6206470;28;20054;-72
2021/08/11 09:36:12;;;;;;;7.55;4.60;;;;;;;;;;6215478;28;20066;-71
2021/08/11 09:39:14;;;;;;;8.88;5.05;;;;;;;;;;6209865;28;20054;-72
2021/08/11 09:42:18;;;;;;;5.75;4.55;;;;;;;;;;6199004;28;20138;-72
2021/08/11 09:45:19;;;;;;;6.90;4.40;;;;;;;;;;6197601;28;20042;-72
2021/08/11 09:48:22;;;;;;;6.15;4.32;;;;;;;;;;6197432;28;20050;-72
2021/08/11 09:51:23;;;;;;;5.85;4.10;;;;;;;;;;6191829;28;20174;-71
2021/08/11 09:54:26;;;;;;;9.25;3.90;;;;;;;;;;6198771;28;20178;-71
2021/08/11 09:57:30;;;;;;;6.20;4.50;;;;;;;;;;6192127;28;20100;-72
2021/08/11 10:00:38;;;;;;;6.30;4.43;;;;;;;;;;6185567;28;20050;-72
2021/08/11 10:03:54;;;;;;;6.88;4.30;;;;;;;;;;6191927;28;20053;-72
2021/08/11 10:06:55;;;;;;;5.30;4.20;;;;;;;;;;6185645;28;20513;-72
2021/08/11 10:10:01;;;;;;;6.57;4.00;;;;;;;;;;6199022;28;20050;-72
2021/08/11 10:13:09;;;;;;;6.57;4.43;;;;;;;;;;6190261;28;20299;-72
2021/08/11 10:16:11;;;;;;;5.85;4.45;;;;;;;;;;6184473;28;20117;-72
2021/08/11 10:19:13;;;;;;;5.70;4.28;;;;;;;;;;6201125;28;20069;-72
2021/08/11 10:22:16;;;;;;;6.43;4.38;;;;;;;;;;6190348;28;20046;-71
2021/08/11 10:25:18;;;;;;;6.88;4.35;;;;;;;;;;6192858;28;20058;-72
2021/08/11 10:28:23;;;;;;;7.03;4.78;;;;;;;;;;6206992;28;20789;-71
2021/08/11 10:31:26;;;;;;;6.50;4.30;;;;;;;;;;6194865;28;20045;-71
2021/08/11 10:34:29;;;;;;;8.80;4.60;;;;;;;;;;6203614;28;20073;-72
2021/08/11 10:37:30;;;;;;;7.20;4.95;;;;;;;;;;6199565;28;20129;-72
2021/08/11 10:40:32;;;;;;;5.75;4.43;;;;;;;;;;6205707;28;20133;-72
2021/08/11 10:43:35;;;;;;;5.88;4.53;;;;;;;;;;6208450;28;20497;-72
2021/08/11 10:46:39;;;;;;;6.70;4.90;;;;;;;;;;6194119;28;20054;-72
2021/08/11 10:49:52;;;;;;;8.07;4.80;;;;;;;;;;6200961;28;20111;-72
2021/08/11 10:53:09;;;;;;;8.73;4.45;;;;;;;;;;6198042;28;20057;-71
2021/08/11 10:56:11;;;;;;;7.07;4.53;;;;;;;;;;6197388;28;20040;-71
2021/08/11 10:59:44;;;;;;;6.50;4.10;;;;;;;;;;6204494;28;20048;-72
2021/08/11 11:02:49;;;;;;;7.78;4.68;;;;;;;;;;6191386;28;20050;-72
2021/08/11 11:05:54;;;;;;;8.30;4.97;;;;;;;;;;6186377;28;20485;-72
2021/08/11 11:09:16;;;;;;;6.32;4.90;;;;;;;;;;6194986;28;20046;-72
2021/08/11 11:12:37;;;;;;;6.15;4.38;;;;;;;;;;6190528;28;20096;-72
2021/08/11 11:15:52;;;;;;;5.38;4.88;;;;;;;;;;6184720;28;20454;-72
2021/08/11 11:19:06;;;;;;;8.18;4.95;;;;;;;;;;6193115;28;20137;-72
2021/08/11 11:22:33;;;;;;;7.53;4.90;;;;;;;;;;6187200;28;20042;-73
2021/08/11 11:26:04;;;;;;;5.45;4.65;;;;;;;;;;6189573;28;20461;-72
2021/08/11 11:29:06;;;;;;;;;;;;;;;;;;6198976;28;20057;-72
2021/08/11 11:32:24;;;;;;;6.63;4.95;;;;;;;;;;6187273;28;19981;-72
2021/08/11 11:35:28;;;;;;;5.88;4.75;;;;;;;;;;6188295;28;20050;-72
2021/08/11 11:38:30;;;;;;;7.05;5.25;;;;;;;;;;6196074;28;20054;-72
2021/08/11 11:41:31;;;;;;;6.72;4.85;;;;;;;;;;6188808;28;20054;-72
2021/08/11 11:44:47;;;;;;;6.38;5.20;;;;;;;;;;6200337;28;20544;-72
2021/08/11 11:48:14;;;;;;;6.88;4.75;;;;;;;;;;6183846;28;20132;-72
2021/08/11 11:51:15;;;;;;;7.07;5.20;;;;;;;;;;6188671;28;20050;-72
2021/08/11 11:54:17;;;;;;;5.72;5.13;;;;;;;;;;6198187;28;20664;-72
2021/08/11 11:57:19;;;;;;;6.93;4.93;;;;;;;;;;6187288;28;20128;-72
2021/08/11 12:00:21;;;;;;;7.30;5.30;;;;;;;;;;6187194;28;20116;-72
2021/08/11 12:03:33;;;;;;;7.85;5.55;;;;;;;;;;6188897;28;20458;-72
2021/08/11 12:06:37;;;;;;;9.95;5.03;;;;;;;;;;6188726;28;20132;-72
2021/08/11 12:09:45;;;;;;;5.63;4.80;;;;;;;;;;6201433;28;20118;-72
2021/08/11 12:13:00;;;;;;;9.75;4.90;;;;;;;;;;6196234;28;20510;-72
2021/08/11 12:16:02;;;;;;;5.57;5.00;;;;;;;;;;6185733;28;20131;-72
2021/08/11 12:19:13;;;;;;;6.45;5.00;;;;;;;;;;6191744;28;20108;-72
2021/08/11 12:22:29;;;;;;;;;;;;;;;;;;6183228;28;20050;-72
2021/08/11 12:25:32;;;;;;;6.18;5.50;;;;;;;;;;6193196;28;20370;-72
2021/08/11 12:28:36;;;;;;;8.38;5.60;;;;;;;;;;6198303;28;20196;-72
2021/08/11 12:31:38;;;;;;;6.93;5.10;;;;;;;;;;6181218;28;20050;-71
2021/08/11 12:34:41;;;;;;;8.05;5.03;;;;;;;;;;6196090;28;20490;-72
2021/08/11 12:37:44;;;;;;;7.88;5.07;;;;;;;;;;6183729;28;21039;-72
2021/08/11 12:40:46;;;;;;;7.30;4.95;;;;;;;;;;6189799;28;20063;-72
2021/08/11 12:43:48;;;;;;;7.03;4.90;;;;;;;;;;6198680;28;20720;-72
2021/08/11 12:46:52;;;;;;;5.88;5.13;;;;;;;;;;6183791;28;20137;-71
2021/08/11 12:49:55;;;;;;;7.07;4.97;;;;;;;;;;6197370;28;20137;-72
2021/08/11 12:52:58;;;;;;;8.02;4.53;;;;;;;;;;6188863;28;20042;-72
2021/08/11 12:56:11;;;;;;;9.35;5.28;;;;;;;;;;6201340;28;20161;-71
2021/08/11 12:59:12;;;;;;;6.15;4.78;;;;;;;;;;6213322;28;20096;-72
2021/08/11 13:02:21;;;;;;;7.15;4.95;;;;;;;;;;6181682;28;20041;-72
2021/08/11 13:05:24;;;;;;;5.55;5.05;;;;;;;;;;6190960;28;20045;-72
2021/08/11 13:08:39;;;;;;;6.30;5.00;;;;;;;;;;6197653;28;20103;-72
2021/08/11 13:11:57;;;;;;;7.80;5.00;;;;;;;;;;6193758;28;20442;-72
2021/08/11 13:14:59;;;;;;;7.63;5.00;;;;;;;;;;6201219;28;20406;-72
2021/08/11 13:18:01;;;;;;;6.35;4.80;;;;;;;;;;6179005;28;20046;-72
2021/08/11 13:21:04;;;;;;;7.10;4.93;;;;;;;;;;6185875;28;20076;-72
2021/08/11 13:24:07;;;;;;;6.22;4.90;;;;;;;;;;6203514;28;20161;-72
2021/08/11 13:27:08;;;;;;;6.82;4.88;;;;;;;;;;6194521;28;20057;-72
2021/08/11 13:30:11;;;;;;;6.93;4.78;;;;;;;;;;6197024;28;20038;-72
2021/08/11 13:33:13;;;;;;;8.77;4.47;;;;;;;;;;6190136;28;20054;-73
2021/08/11 13:36:15;;;;;;;7.95;4.85;;;;;;;;;;6188353;28;20289;-72
2021/08/11 13:39:17;;;;;;;5.60;4.82;;;;;;;;;;6196692;28;20642;-72
2021/08/11 13:42:19;;;;;;;7.28;4.72;;;;;;;;;;6192013;28;20038;-73
2021/08/11 13:45:20;;;;;;;5.32;4.57;;;;;;;;;;6195521;28;20042;-73
2021/08/11 13:48:22;;;;;;;8.20;4.78;;;;;;;;;;6192693;28;20115;-72
2021/08/11 13:51:25;;;;;;;5.80;4.72;;;;;;;;;;6190959;28;20042;-72
2021/08/11 13:54:27;;;;;;;8.35;4.60;;;;;;;;;;6200461;28;20414;-72
2021/08/11 13:57:29;;;;;;;6.68;4.30;;;;;;;;;;6194133;28;20050;-72
2021/08/11 14:00:31;;;;;;;8.18;4.68;;;;;;;;;;6191901;28;20534;-73
2021/08/11 14:03:33;;;;;;;8.95;4.80;;;;;;;;;;6192641;28;20039;-72
2021/08/11 14:06:36;;;;;;;8.35;4.60;;;;;;;;;;6188509;28;20568;-71
2021/08/11 14:09:38;;;;;;;7.05;5.15;;;;;;;;;;6198768;28;20049;-72
2021/08/11 14:12:39;;;;;;;8.60;4.70;;;;;;;;;;6196180;28;20054;-72
2021/08/11 14:15:41;;;;;;;6.18;4.32;;;;;;;;;;6192539;28;20564;-73
2021/08/11 14:18:42;;;;;;;5.80;4.60;;;;;;;;;;6196607;28;20156;-72
2021/08/11 14:21:46;;;;;;;5.05;4.30;;;;;;;;;;6190423;28;20597;-72
2021/08/11 14:24:47;;;;;;;6.60;4.72;;;;;;;;;;6200514;28;20116;-72
2021/08/11 14:27:50;;;;;;;5.13;4.63;;;;;;;;;;6191209;28;20045;-72
2021/08/11 14:30:51;;;;;;;6.65;4.60;;;;;;;;;;6186710;28;20050;-72
2021/08/11 14:33:53;;;;;;;5.70;4.45;;;;;;;;;;6195150;28;20464;-72
2021/08/11 14:36:56;;;;;;;6.35;4.30;;;;;;;;;;6189465;28;20590;-72
2021/08/11 14:39:57;;;;;;;6.32;4.45;;;;;;;;;;6201217;28;20486;-72
2021/08/11 14:42:59;;;;;;;5.97;4.97;;;;;;;;;;6190942;28;20095;-72
2021/08/11 14:46:01;;;;;;;7.05;4.47;;;;;;;;;;6178950;28;20129;-72
2021/08/11 14:49:02;;;;;;;8.68;4.88;;;;;;;;;;6193616;28;20201;-72
2021/08/11 14:52:06;;;;;;;6.72;4.60;;;;;;;;;;6189175;28;20041;-72
2021/08/11 14:55:08;;;;;;;5.95;4.53;;;;;;;;;;6198725;28;20041;-72
2021/08/11 14:58:10;;;;;;;7.88;4.55;;;;;;;;;;6190377;28;20045;-72
2021/08/11 15:01:11;;;;;;;5.82;4.18;;;;;;;;;;6181862;28;20046;-71
2021/08/11 15:04:13;;;;;;;6.40;4.40;;;;;;;;;;6196472;28;20081;-71
2021/08/11 15:07:16;;;;;;;4.57;4.18;;;;;;;;;;6187339;28;20124;-72
2021/08/11 15:10:18;;;;;;;5.18;4.43;;;;;;;;;;6185583;28;20181;-72
2021/08/11 15:13:19;;;;;;;10.70;4.72;;;;;;;;;;6197823;28;20042;-72
2021/08/11 15:16:21;;;;;;;6.97;4.57;;;;;;;;;;6187936;28;20174;-72
2021/08/11 15:19:22;;;;;;;5.75;4.78;;;;;;;;;;6198954;28;20117;-72
2021/08/11 15:22:25;;;;;;;4.80;4.30;;;;;;;;;;6186017;28;20042;-72
2021/08/11 15:25:27;;;;;;;7.53;4.40;;;;;;;;;;6191883;28;20141;-73
2021/08/11 15:28:29;;;;;;;7.20;4.10;;;;;;;;;;6199548;28;20595;-72
2021/08/11 15:31:31;;;;;;;5.57;4.38;;;;;;;;;;6185405;28;20089;-73
2021/08/11 15:34:32;;;;;;;4.90;4.40;;;;;;;;;;6197312;28;20085;-72
2021/08/11 15:37:36;;;;;;;7.32;4.50;;;;;;;;;;6186124;28;20042;-72
2021/08/11 15:40:38;;;;;;;4.95;4.25;;;;;;;;;;6188649;28;20516;-72
2021/08/11 15:43:39;;;;;;;4.90;4.45;;;;;;;;;;6201851;28;20052;-72
2021/08/11 15:46:43;;;;;;;7.90;4.88;;;;;;;;;;6185865;28;20041;-72
2021/08/11 15:49:45;;;;;;;6.43;4.63;;;;;;;;;;6193309;28;20093;-72
2021/08/11 15:52:48;;;;;;;7.30;4.93;;;;;;;;;;6183495;28;20447;-72
2021/08/11 15:55:50;;;;;;;6.45;4.85;;;;;;;;;;6189601;28;20063;-72
2021/08/11 15:58:52;;;;;;;;;;;;;;;;;;6201246;28;20049;-71
2021/08/11 16:01:55;;;;;;;10.07;4.77;;;;;;;;;;6186645;28;20044;-71
2021/08/11 16:04:56;;;;;;;5.93;4.70;;;;;;;;;;6195008;28;20054;-71
2021/08/11 16:08:00;;;;;;;6.85;4.72;;;;;;;;;;6189580;28;20060;-71
2021/08/11 16:11:03;;;;;;;5.43;4.00;;;;;;;;;;6190035;28;20082;-71
2021/08/11 16:14:04;;;;;;;6.28;4.18;;;;;;;;;;6202786;28;20410;-71
2021/08/11 16:17:06;;;;;;;7.35;4.00;;;;;;;;;;6185152;28;20049;-71
2021/08/11 16:20:09;;;;;;;6.55;4.22;;;;;;;;;;6192737;28;20046;-72
2021/08/11 16:23:12;;;;;;;6.07;4.68;;;;;;;;;;6193817;28;20535;-71
2021/08/11 16:26:14;;;;;;;4.57;4.15;;;;;;;;;;6188756;28;20096;-72
2021/08/11 16:29:15;;;;;;;7.88;4.15;;;;;;;;;;6203076;28;20050;-71
2021/08/11 16:32:17;;;;;;;5.22;3.70;;;;;;;;;;6189173;28;20139;-71
2021/08/11 16:35:18;;;;;;;6.43;4.15;;;;;;;;;;6195649;28;20052;-72
2021/08/11 16:38:21;;;;;;;6.97;4.25;;;;;;;;;;6194817;28;20046;-72
2021/08/11 16:41:23;;;;;;;7.32;4.60;;;;;;;;;;6194281;28;20058;-71
2021/08/11 16:44:25;;;;;;;7.95;4.82;;;;;;;;;;6205451;28;20042;-71
2021/08/11 16:47:26;;;;;;;8.48;4.25;;;;;;;;;;6192977;28;20096;-71
2021/08/11 16:50:28;;;;;;;6.20;4.35;;;;;;;;;;6193899;28;20140;-71
2021/08/11 16:53:31;;;;;;;7.75;5.22;;;;;;;;;;6208436;28;20132;-70
2021/08/11 16:56:32;;;;;;;11.68;5.00;;;;;;;;;;6203794;28;20042;-70
2021/08/11 16:59:37;;;;;;;9.37;4.70;;;;;;;;;;6204928;28;20129;-69
2021/08/11 17:02:38;;;;;;;9.05;4.53;;;;;;;;;;6192668;28;21004;-70
2021/08/11 17:05:40;;;;;;;8.33;4.50;;;;;;;;;;6204172;28;20137;-70
2021/08/11 17:08:43;;;;;;;7.55;4.32;;;;;;;;;;6208227;28;20446;-71
2021/08/11 17:11:45;;;;;;;10.35;4.57;;;;;;;;;;6198231;28;20048;-71
2021/08/11 17:14:46;;;;;;;6.75;4.00;;;;;;;;;;6204677;28;20050;-71
2021/08/11 17:17:48;;;;;;;6.07;4.20;;;;;;;;;;6187476;28;20098;-71
2021/08/11 17:20:50;;;;;;;8.52;4.72;;;;;;;;;;6194525;28;20514;-71
2021/08/11 17:23:53;;;;;;;7.70;4.60;;;;;;;;;;6202368;28;20128;-71
2021/08/11 17:26:54;;;;;;;7.60;4.50;;;;;;;;;;6198109;28;20192;-70
2021/08/11 17:29:56;;;;;;;6.03;4.30;;;;;;;;;;6203787;28;20410;-70
2021/08/11 17:32:57;;;;;;;6.53;4.07;;;;;;;;;;6192601;28;20494;-71
2021/08/11 17:35:59;;;;;;;7.80;4.32;;;;;;;;;;6194686;28;20123;-71
2021/08/11 17:39:02;;;;;;;6.60;4.30;;;;;;;;;;6203986;28;20184;-70
2021/08/11 17:42:04;;;;;;;5.25;4.20;;;;;;;;;;6182076;28;20054;-70
2021/08/11 17:45:07;;;;;;;4.85;4.22;;;;;;;;;;6202329;28;20049;-71
2021/08/11 17:48:08;;;;;;;5.78;4.18;;;;;;;;;;6195724;28;20073;-70
2021/08/11 17:51:10;;;;;;;8.10;4.60;;;;;;;;;;6190089;28;20172;-70
2021/08/11 17:54:13;;;;;;;7.77;4.53;;;;;;;;;;6202935;28;20129;-70
2021/08/11 17:57:15;;;;;;;5.75;4.60;;;;;;;;;;6189352;28;20046;-70
2021/08/11 18:00:16;;;;;;;5.72;5.03;;;;;;;;;;6193978;28;20430;-71
2021/08/11 18:03:19;;;;;;;9.77;5.03;;;;;;;;;;6193068;28;20077;-71
2021/08/11 18:06:20;;;;;;;7.65;4.95;;;;;;;;;;6190280;28;20474;-70
2021/08/11 18:09:23;;;;;;;7.10;5.40;;;;;;;;;;6204224;28;20152;-71
2021/08/11 18:12:25;;;;;;;6.63;4.93;;;;;;;;;;6191748;28;20097;-70
2021/08/11 18:15:26;;;;;;;9.95;5.03;;;;;;;;;;6178202;28;20426;-71